Burdine, KY (41517)

5:22 AM EST on December 06, 2016 (GMT -0500)
APRSWXNET | | Change Station

Elev 1850 ft 37.21 °N, 82.44 °W | Updated 29 minutes ago

Rain
Rain
45 °F
Feels Like 45 °F
N
0
Wind Variable Wind from NNE
Gusts 1.0 mph

Today
High -- | Low -- °F
--% Chance of Precip.
Yesterday
High -- | Low -- °F
Precip. -- in
Pressure 29.80 in
Visibility 7.0 miles
Clouds Scattered Clouds 1500 ft
Scattered Clouds 3200 ft
Overcast 7000 ft
Windchill 45 °F
Dew Point 41 °F
Humidity 87%
Rainfall in
Snow Depth Not available.
7:30 AM 5:12 PM
Waxing Crescent, 40% visible
METAR KLNP 061015Z AUTO 15011G18KT 7SM RA SCT015 SCT032 OVC070 06/06 A2980 RMK AO2 P0001
Pressure 29.80 in
Visibility 7.0 miles
Clouds Scattered Clouds 1500 ft
Scattered Clouds 3200 ft
Overcast 7000 ft
Windchill 45 °F
Dew Point 41 °F
Humidity 87%
Rainfall in
Snow Depth Not available.
7:30 AM 5:12 PM
Waxing Crescent, 40% visible
METAR KLNP 061015Z AUTO 15011G18KT 7SM RA SCT015 SCT032 OVC070 06/06 A2980 RMK AO2 P0001

10-Day Weather Forecast

Almanac

Astronomy

Dec. 06, 2016 Rise Set
Actual Time
Civil Twilight
Nautical Twilight
Astronomical Twilight
Moon
Length of Visible Light
Length of Day
Tomorrow will be .
, % of the Moon is Illuminated

Today's Extremes

State Highs State Lows

Community

WunderPhotos

Upload Photos

1,955,935 photos uploaded!

WunderBlog® & News

Nearby

Air Quality

  Air Quality AQ Index Pollutant
Not available.

Snow Depth

Station Depth Elevation

Earthquake Activity

City Distance Mag. Time & Date
Minimum magnitude displayed is 2.5.

Coastal Water Temperatures

Place Temperature

Stations

Nearby Weather Stations

Station Location Temp. Windchill Dew Point Humidity Wind Precip. Elev Updated Type
                   

Watches & Warnings

There are currently no watches in effect.